sensor_id;sensor_type;location;lat;lon;timestamp;temperature;humidity
18252;DHT22;26917;52.328;20.878;2022-12-16T03:41:22;-4.30;99.90
18252;DHT22;26917;52.328;20.878;2022-12-16T04:21:02;-4.40;99.90
18252;DHT22;26917;52.328;20.878;2022-12-16T04:24:07;-3.80;99.90
18252;DHT22;26917;52.328;20.878;2022-12-16T04:44:26;-4.40;99.90
18252;DHT22;26917;52.328;20.878;2022-12-16T04:51:00;-5.00;99.90
18252;DHT22;26917;52.328;20.878;2022-12-16T04:54:32;-4.10;99.90
18252;DHT22;26917;52.328;20.878;2022-12-16T04:57:42;-4.40;99.90
18252;DHT22;26917;52.328;20.878;2022-12-16T05:01:25;-4.50;99.90
18252;DHT22;26917;52.328;20.878;2022-12-16T05:05:05;-4.50;99.90
18252;DHT22;26917;52.328;20.878;2022-12-16T05:09:24;-4.50;99.90
18252;DHT22;26917;52.328;20.878;2022-12-16T05:12:17;-4.40;99.90
18252;DHT22;26917;52.328;20.878;2022-12-16T05:15:21;-4.50;99.90
18252;DHT22;26917;52.328;20.878;2022-12-16T05:22:37;-4.40;99.90
18252;DHT22;26917;52.328;20.878;2022-12-16T05:25:43;-4.50;99.90
18252;DHT22;26917;52.328;20.878;2022-12-16T05:28:32;-4.10;99.90
18252;DHT22;26917;52.328;20.878;2022-12-16T05:31:53;-4.40;99.90
18252;DHT22;26917;52.328;20.878;2022-12-16T05:34:45;-4.20;99.90
18252;DHT22;26917;52.328;20.878;2022-12-16T05:37:51;-4.50;99.90
18252;DHT22;26917;52.328;20.878;2022-12-16T05:40:51;-4.40;99.90
18252;DHT22;26917;52.328;20.878;2022-12-16T05:43:55;-4.50;99.90
18252;DHT22;26917;52.328;20.878;2022-12-16T05:47:36;-4.50;99.90
18252;DHT22;26917;52.328;20.878;2022-12-16T05:50:49;-4.50;99.90
18252;DHT22;26917;52.328;20.878;2022-12-16T05:54:24;-4.50;99.90
18252;DHT22;26917;52.328;20.878;2022-12-16T06:00:26;-4.60;99.90
18252;DHT22;26917;52.328;20.878;2022-12-16T06:03:12;-4.90;99.90
18252;DHT22;26917;52.328;20.878;2022-12-16T06:07:01;-4.60;99.90
18252;DHT22;26917;52.328;20.878;2022-12-16T06:13:16;-4.60;99.90
18252;DHT22;26917;52.328;20.878;2022-12-16T06:20:15;-4.60;99.90
18252;DHT22;26917;52.328;20.878;2022-12-16T06:23:09;-4.40;99.90
18252;DHT22;26917;52.328;20.878;2022-12-16T06:26:39;-4.60;99.90
18252;DHT22;26917;52.328;20.878;2022-12-16T06:30:09;-4.60;99.90
18252;DHT22;26917;52.328;20.878;2022-12-16T06:33:03;-5.60;99.90
18252;DHT22;26917;52.328;20.878;2022-12-16T06:36:53;-4.60;99.90
18252;DHT22;26917;52.328;20.878;2022-12-16T06:39:50;-4.50;99.90
18252;DHT22;26917;52.328;20.878;2022-12-16T06:42:56;-4.60;99.90
18252;DHT22;26917;52.328;20.878;2022-12-16T06:45:51;-4.60;99.90
18252;DHT22;26917;52.328;20.878;2022-12-16T06:49:14;-4.50;99.90
18252;DHT22;26917;52.328;20.878;2022-12-16T06:52:00;-4.60;99.90
18252;DHT22;26917;52.328;20.878;2022-12-16T06:55:10;-4.60;99.90
18252;DHT22;26917;52.328;20.878;2022-12-16T06:58:09;-4.60;99.90
18252;DHT22;26917;52.328;20.878;2022-12-16T07:04:05;-4.60;99.90
18252;DHT22;26917;52.328;20.878;2022-12-16T07:06:58;-4.60;99.90
18252;DHT22;26917;52.328;20.878;2022-12-16T07:09:47;-4.60;99.90
18252;DHT22;26917;52.328;20.878;2022-12-16T07:13:03;-4.60;99.90
18252;DHT22;26917;52.328;20.878;2022-12-16T07:15:54;-4.60;99.90
18252;DHT22;26917;52.328;20.878;2022-12-16T07:18:47;-4.60;99.90
18252;DHT22;26917;52.328;20.878;2022-12-16T07:21:47;-4.60;99.90
18252;DHT22;26917;52.328;20.878;2022-12-16T07:24:50;-4.60;99.90
18252;DHT22;26917;52.328;20.878;2022-12-16T07:27:56;-4.20;99.90
18252;DHT22;26917;52.328;20.878;2022-12-16T07:31:16;-4.50;99.90
18252;DHT22;26917;52.328;20.878;2022-12-16T07:34:15;-4.50;99.90
18252;DHT22;26917;52.328;20.878;2022-12-16T07:37:09;-4.60;99.90
18252;DHT22;26917;52.328;20.878;2022-12-16T07:40:11;-4.60;99.90
18252;DHT22;26917;52.328;20.878;2022-12-16T07:43:19;-4.60;99.90
18252;DHT22;26917;52.328;20.878;2022-12-16T07:46:25;-4.50;99.90
18252;DHT22;26917;52.328;20.878;2022-12-16T07:49:24;-4.50;99.90
18252;DHT22;26917;52.328;20.878;2022-12-16T07:52:11;-4.50;99.90
18252;DHT22;26917;52.328;20.878;2022-12-16T07:55:21;-3.90;99.90
18252;DHT22;26917;52.328;20.878;2022-12-16T07:58:21;-4.50;99.90
18252;DHT22;26917;52.328;20.878;2022-12-16T08:01:06;-4.40;99.90
18252;DHT22;26917;52.328;20.878;2022-12-16T08:04:21;-4.20;99.90
18252;DHT22;26917;52.328;20.878;2022-12-16T08:07:54;-4.50;99.90
18252;DHT22;26917;52.328;20.878;2022-12-16T08:11:22;-4.50;99.90
18252;DHT22;26917;52.328;20.878;2022-12-16T08:14:11;-4.40;99.90
18252;DHT22;26917;52.328;20.878;2022-12-16T08:17:31;-4.30;99.90
18252;DHT22;26917;52.328;20.878;2022-12-16T08:20:22;-4.40;99.90
18252;DHT22;26917;52.328;20.878;2022-12-16T08:23:23;-4.40;99.90
18252;DHT22;26917;52.328;20.878;2022-12-16T08:26:28;-4.10;99.90
18252;DHT22;26917;52.328;20.878;2022-12-16T08:29:31;-4.30;99.90
18252;DHT22;26917;52.328;20.878;2022-12-16T08:32:31;-4.40;99.90
18252;DHT22;26917;52.328;20.878;2022-12-16T08:35:47;-4.30;99.90
18252;DHT22;26917;52.328;20.878;2022-12-16T08:38:56;-4.10;99.90
18252;DHT22;26917;52.328;20.878;2022-12-16T08:41:46;-3.70;99.90
18252;DHT22;26917;52.328;20.878;2022-12-16T08:44:58;-4.30;99.90
18252;DHT22;26917;52.328;20.878;2022-12-16T08:47:55;-4.30;99.90
18252;DHT22;26917;52.328;20.878;2022-12-16T08:50:43;-4.30;99.90
18252;DHT22;26917;52.328;20.878;2022-12-16T08:53:40;-4.30;99.90
18252;DHT22;26917;52.328;20.878;2022-12-16T08:56:29;-4.20;99.90
18252;DHT22;26917;52.328;20.878;2022-12-16T09:03:04;-4.20;99.90
18252;DHT22;26917;52.328;20.878;2022-12-16T09:06:20;-3.80;99.90
18252;DHT22;26917;52.328;20.878;2022-12-16T09:09:31;-4.20;99.90
18252;DHT22;26917;52.328;20.878;2022-12-16T09:13:14;-4.10;99.90
18252;DHT22;26917;52.328;20.878;2022-12-16T09:19:46;-4.10;99.90
18252;DHT22;26917;52.328;20.878;2022-12-16T09:23:18;-4.00;99.90
18252;DHT22;26917;52.328;20.878;2022-12-16T09:26:40;-4.00;99.90
18252;DHT22;26917;52.328;20.878;2022-12-16T09:29:53;-3.80;99.90
18252;DHT22;26917;52.328;20.878;2022-12-16T09:33:32;-3.80;99.90
18252;DHT22;26917;52.328;20.878;2022-12-16T09:40:45;-3.90;99.90
18252;DHT22;26917;52.328;20.878;2022-12-16T10:00:01;-3.80;99.90
18252;DHT22;26917;52.328;20.878;2022-12-16T10:21:11;-3.70;99.90
18252;DHT22;26917;52.328;20.878;2022-12-16T10:37:50;-3.70;99.90
18252;DHT22;26917;52.328;20.878;2022-12-16T10:40:56;-3.50;99.90
18252;DHT22;26917;52.328;20.878;2022-12-16T10:44:03;-3.50;99.90
18252;DHT22;26917;52.328;20.878;2022-12-16T10:47:23;-3.50;99.90
18252;DHT22;26917;52.328;20.878;2022-12-16T10:50:14;-3.50;99.90
18252;DHT22;26917;52.328;20.878;2022-12-16T10:53:21;-3.10;99.90
18252;DHT22;26917;52.328;20.878;2022-12-16T10:56:24;-3.40;99.90
18252;DHT22;26917;52.328;20.878;2022-12-16T10:59:36;-3.30;99.90
18252;DHT22;26917;52.328;20.878;2022-12-16T11:02:31;-3.40;99.90
18252;DHT22;26917;52.328;20.878;2022-12-16T11:05:33;-3.40;99.90
18252;DHT22;26917;52.328;20.878;2022-12-16T11:08:30;-3.20;99.90
18252;DHT22;26917;52.328;20.878;2022-12-16T11:11:20;-3.10;99.90
18252;DHT22;26917;52.328;20.878;2022-12-16T11:14:16;-3.30;99.90
18252;DHT22;26917;52.328;20.878;2022-12-16T11:17:18;-3.30;99.90
18252;DHT22;26917;52.328;20.878;2022-12-16T11:20:15;-3.20;99.90
18252;DHT22;26917;52.328;20.878;2022-12-16T11:23:18;-3.30;99.90
18252;DHT22;26917;52.328;20.878;2022-12-16T11:26:14;-3.10;99.90
18252;DHT22;26917;52.328;20.878;2022-12-16T11:29:15;-2.80;99.90
18252;DHT22;26917;52.328;20.878;2022-12-16T11:32:09;-3.20;99.90
18252;DHT22;26917;52.328;20.878;2022-12-16T11:35:16;-3.20;99.90
18252;DHT22;26917;52.328;20.878;2022-12-16T11:38:21;-3.20;99.90
18252;DHT22;26917;52.328;20.878;2022-12-16T11:41:30;-3.20;99.90
18252;DHT22;26917;52.328;20.878;2022-12-16T11:44:26;-2.70;99.90
18252;DHT22;26917;52.328;20.878;2022-12-16T11:47:21;-2.80;99.90
18252;DHT22;26917;52.328;20.878;2022-12-16T11:50:16;-2.20;99.90
18252;DHT22;26917;52.328;20.878;2022-12-16T11:53:05;-3.20;99.90
18252;DHT22;26917;52.328;20.878;2022-12-16T11:55:58;-2.80;99.90
18252;DHT22;26917;52.328;20.878;2022-12-16T11:58:58;-3.10;99.90
18252;DHT22;26917;52.328;20.878;2022-12-16T12:02:07;-2.70;99.90
18252;DHT22;26917;52.328;20.878;2022-12-16T12:05:56;-3.10;99.90
18252;DHT22;26917;52.328;20.878;2022-12-16T12:12:32;-3.10;99.90
18252;DHT22;26917;52.328;20.878;2022-12-16T12:20:58;-3.10;99.90
18252;DHT22;26917;52.328;20.878;2022-12-16T12:24:29;-3.10;99.90
18252;DHT22;26917;52.328;20.878;2022-12-16T12:27:52;-2.80;99.90
18252;DHT22;26917;52.328;20.878;2022-12-16T12:30:59;-3.10;99.90
18252;DHT22;26917;52.328;20.878;2022-12-16T12:34:18;-2.00;99.90
18252;DHT22;26917;52.328;20.878;2022-12-16T12:37:18;-3.00;99.90
18252;DHT22;26917;52.328;20.878;2022-12-16T12:40:45;-2.70;99.90
18252;DHT22;26917;52.328;20.878;2022-12-16T12:43:47;-3.00;99.90
18252;DHT22;26917;52.328;20.878;2022-12-16T12:46:52;-3.00;99.90
18252;DHT22;26917;52.328;20.878;2022-12-16T12:49:51;-3.10;99.90
18252;DHT22;26917;52.328;20.878;2022-12-16T12:53:10;-2.70;99.90
18252;DHT22;26917;52.328;20.878;2022-12-16T12:56:05;-3.00;99.90
18252;DHT22;26917;52.328;20.878;2022-12-16T12:59:13;-2.90;99.90
18252;DHT22;26917;52.328;20.878;2022-12-16T13:02:03;-2.90;99.90
18252;DHT22;26917;52.328;20.878;2022-12-16T13:05:19;-2.00;99.90
18252;DHT22;26917;52.328;20.878;2022-12-16T13:08:57;-3.00;99.90
18252;DHT22;26917;52.328;20.878;2022-12-16T13:12:19;-3.00;99.90
18252;DHT22;26917;52.328;20.878;2022-12-16T13:15:40;-3.00;99.90
18252;DHT22;26917;52.328;20.878;2022-12-16T13:22:28;-3.00;99.90
18252;DHT22;26917;52.328;20.878;2022-12-16T13:25:43;-2.10;99.90
18252;DHT22;26917;52.328;20.878;2022-12-16T13:28:36;-1.80;99.90
18252;DHT22;26917;52.328;20.878;2022-12-16T13:31:22;-3.00;99.90
18252;DHT22;26917;52.328;20.878;2022-12-16T13:34:22;-2.90;99.90
18252;DHT22;26917;52.328;20.878;2022-12-16T13:37:24;-2.60;99.90
18252;DHT22;26917;52.328;20.878;2022-12-16T13:40:26;-2.80;99.90
18252;DHT22;26917;52.328;20.878;2022-12-16T13:43:43;-3.00;99.90
18252;DHT22;26917;52.328;20.878;2022-12-16T13:46:40;-3.00;99.90
18252;DHT22;26917;52.328;20.878;2022-12-16T13:49:45;-2.50;99.90
18252;DHT22;26917;52.328;20.878;2022-12-16T13:52:43;-3.00;99.90
18252;DHT22;26917;52.328;20.878;2022-12-16T13:55:53;-3.00;99.90
18252;DHT22;26917;52.328;20.878;2022-12-16T13:58:43;-2.80;99.90
18252;DHT22;26917;52.328;20.878;2022-12-16T14:01:37;-2.30;99.90
18252;DHT22;26917;52.328;20.878;2022-12-16T14:04:36;-3.00;99.90
18252;DHT22;26917;52.328;20.878;2022-12-16T14:07:38;-3.00;99.90
18252;DHT22;26917;52.328;20.878;2022-12-16T14:10:27;-3.00;99.90
18252;DHT22;26917;52.328;20.878;2022-12-16T14:13:25;-2.90;99.90
18252;DHT22;26917;52.328;20.878;2022-12-16T14:19:52;-2.70;99.90
18252;DHT22;26917;52.328;20.878;2022-12-16T14:22:48;-2.00;99.90
18252;DHT22;26917;52.328;20.878;2022-12-16T14:26:12;-3.00;99.90
18252;DHT22;26917;52.328;20.878;2022-12-16T14:29:17;-3.00;99.90
18252;DHT22;26917;52.328;20.878;2022-12-16T14:32:25;-3.00;99.90
18252;DHT22;26917;52.328;20.878;2022-12-16T14:35:37;-3.10;99.90
18252;DHT22;26917;52.328;20.878;2022-12-16T14:38:34;-3.00;99.90
18252;DHT22;26917;52.328;20.878;2022-12-16T14:41:22;-2.80;99.90
18252;DHT22;26917;52.328;20.878;2022-12-16T14:44:16;-3.00;99.90
18252;DHT22;26917;52.328;20.878;2022-12-16T14:47:20;-2.70;99.90
18252;DHT22;26917;52.328;20.878;2022-12-16T14:50:18;-3.00;99.90
18252;DHT22;26917;52.328;20.878;2022-12-16T14:53:33;-3.00;99.90
18252;DHT22;26917;52.328;20.878;2022-12-16T14:56:34;-3.00;99.90
18252;DHT22;26917;52.328;20.878;2022-12-16T14:59:28;-2.80;99.90
18252;DHT22;26917;52.328;20.878;2022-12-16T15:02:34;-2.70;99.90
18252;DHT22;26917;52.328;20.878;2022-12-16T15:05:24;-3.00;99.90
18252;DHT22;26917;52.328;20.878;2022-12-16T15:08:20;-3.00;99.90
18252;DHT22;26917;52.328;20.878;2022-12-16T15:11:37;-3.00;99.90
18252;DHT22;26917;52.328;20.878;2022-12-16T15:14:28;-3.10;99.90
18252;DHT22;26917;52.328;20.878;2022-12-16T15:17:30;-2.90;99.90
18252;DHT22;26917;52.328;20.878;2022-12-16T15:20:22;-3.00;99.90
18252;DHT22;26917;52.328;20.878;2022-12-16T15:23:14;-3.00;99.90
18252;DHT22;26917;52.328;20.878;2022-12-16T15:26:07;-3.10;99.90
18252;DHT22;26917;52.328;20.878;2022-12-16T15:28:55;-4.10;99.90
18252;DHT22;26917;52.328;20.878;2022-12-16T15:31:54;-3.10;99.90
18252;DHT22;26917;52.328;20.878;2022-12-16T15:34:49;-2.70;99.90
18252;DHT22;26917;52.328;20.878;2022-12-16T15:37:36;-2.70;99.90
18252;DHT22;26917;52.328;20.878;2022-12-16T15:40:31;-3.00;99.90
18252;DHT22;26917;52.328;20.878;2022-12-16T15:43:31;-2.80;99.90
18252;DHT22;26917;52.328;20.878;2022-12-16T15:46:26;-2.80;99.90
18252;DHT22;26917;52.328;20.878;2022-12-16T15:49:18;-2.90;99.90
18252;DHT22;26917;52.328;20.878;2022-12-16T15:52:27;-3.00;99.90
18252;DHT22;26917;52.328;20.878;2022-12-16T15:55:27;-3.00;99.90
18252;DHT22;26917;52.328;20.878;2022-12-16T15:58:19;-3.00;99.90
18252;DHT22;26917;52.328;20.878;2022-12-16T16:01:08;-2.90;99.90
18252;DHT22;26917;52.328;20.878;2022-12-16T16:04:16;-3.40;99.90
18252;DHT22;26917;52.328;20.878;2022-12-16T16:07:16;-3.30;99.90
18252;DHT22;26917;52.328;20.878;2022-12-16T16:10:13;-3.00;99.90
18252;DHT22;26917;52.328;20.878;2022-12-16T16:13:14;-4.10;99.90
18252;DHT22;26917;52.328;20.878;2022-12-16T16:16:15;-2.70;99.90
18252;DHT22;26917;52.328;20.878;2022-12-16T16:19:08;-3.00;99.90
18252;DHT22;26917;52.328;20.878;2022-12-16T16:21:58;-2.50;99.90
18252;DHT22;26917;52.328;20.878;2022-12-16T16:24:54;-2.90;99.90
18252;DHT22;26917;52.328;20.878;2022-12-16T16:27:37;-3.00;99.90
18252;DHT22;26917;52.328;20.878;2022-12-16T16:30:30;-3.00;99.90
18252;DHT22;26917;52.328;20.878;2022-12-16T16:33:17;-2.60;99.90
18252;DHT22;26917;52.328;20.878;2022-12-16T16:36:20;-3.00;99.90
18252;DHT22;26917;52.328;20.878;2022-12-16T16:39:10;-3.00;99.90
18252;DHT22;26917;52.328;20.878;2022-12-16T16:42:00;-3.00;99.90
18252;DHT22;26917;52.328;20.878;2022-12-16T16:44:46;-3.00;99.90
18252;DHT22;26917;52.328;20.878;2022-12-16T16:47:49;-2.70;99.90
18252;DHT22;26917;52.328;20.878;2022-12-16T16:50:35;-3.00;99.90
18252;DHT22;26917;52.328;20.878;2022-12-16T16:53:21;-2.70;99.90
18252;DHT22;26917;52.328;20.878;2022-12-16T16:56:11;-3.00;99.90
18252;DHT22;26917;52.328;20.878;2022-12-16T16:59:00;-3.00;99.90
18252;DHT22;26917;52.328;20.878;2022-12-16T17:01:49;-3.00;99.90
18252;DHT22;26917;52.328;20.878;2022-12-16T17:04:38;-3.00;99.90
18252;DHT22;26917;52.328;20.878;2022-12-16T17:07:24;-2.50;99.90
18252;DHT22;26917;52.328;20.878;2022-12-16T17:10:35;-2.10;99.90
18252;DHT22;26917;52.328;20.878;2022-12-16T17:13:31;-3.00;99.90
18252;DHT22;26917;52.328;20.878;2022-12-16T17:16:22;-3.00;99.90
18252;DHT22;26917;52.328;20.878;2022-12-16T17:19:11;-2.90;99.90
18252;DHT22;26917;52.328;20.878;2022-12-16T17:22:10;-2.80;99.90
18252;DHT22;26917;52.328;20.878;2022-12-16T17:25:01;-3.00;99.90
18252;DHT22;26917;52.328;20.878;2022-12-16T17:27:46;-3.00;99.90
18252;DHT22;26917;52.328;20.878;2022-12-16T17:31:03;-2.60;99.90
18252;DHT22;26917;52.328;20.878;2022-12-16T17:34:20;-2.90;99.90
18252;DHT22;26917;52.328;20.878;2022-12-16T17:37:06;-2.90;99.90
18252;DHT22;26917;52.328;20.878;2022-12-16T17:40:06;-3.00;99.90
18252;DHT22;26917;52.328;20.878;2022-12-16T17:43:07;-3.00;99.90
18252;DHT22;26917;52.328;20.878;2022-12-16T17:45:58;-2.40;99.90
18252;DHT22;26917;52.328;20.878;2022-12-16T17:48:49;-3.00;99.90
18252;DHT22;26917;52.328;20.878;2022-12-16T17:51:36;-2.90;99.90
18252;DHT22;26917;52.328;20.878;2022-12-16T17:54:22;-2.80;99.90
18252;DHT22;26917;52.328;20.878;2022-12-16T17:57:08;-2.90;99.90
18252;DHT22;26917;52.328;20.878;2022-12-16T17:59:59;-2.90;99.90
18252;DHT22;26917;52.328;20.878;2022-12-16T18:02:59;-2.90;99.90
18252;DHT22;26917;52.328;20.878;2022-12-16T18:05:55;-2.80;99.90
18252;DHT22;26917;52.328;20.878;2022-12-16T18:08:57;-2.90;99.90
18252;DHT22;26917;52.328;20.878;2022-12-16T18:12:00;-2.90;99.90
18252;DHT22;26917;52.328;20.878;2022-12-16T18:14:46;-3.00;99.90
18252;DHT22;26917;52.328;20.878;2022-12-16T18:17:32;-2.60;99.90
18252;DHT22;26917;52.328;20.878;2022-12-16T18:20:20;-2.90;99.90
18252;DHT22;26917;52.328;20.878;2022-12-16T18:23:08;-2.80;99.90
18252;DHT22;26917;52.328;20.878;2022-12-16T18:25:58;-2.80;99.90
18252;DHT22;26917;52.328;20.878;2022-12-16T18:28:45;-2.60;99.90
18252;DHT22;26917;52.328;20.878;2022-12-16T18:31:30;-2.80;99.90
18252;DHT22;26917;52.328;20.878;2022-12-16T18:34:17;-2.70;99.90
18252;DHT22;26917;52.328;20.878;2022-12-16T18:37:03;-2.80;99.90
18252;DHT22;26917;52.328;20.878;2022-12-16T18:39:47;-1.80;99.90
18252;DHT22;26917;52.328;20.878;2022-12-16T18:42:33;-1.90;99.90
18252;DHT22;26917;52.328;20.878;2022-12-16T18:45:20;-2.80;99.90
18252;DHT22;26917;52.328;20.878;2022-12-16T18:48:19;-2.80;99.90
18252;DHT22;26917;52.328;20.878;2022-12-16T18:51:05;-2.80;99.90
18252;DHT22;26917;52.328;20.878;2022-12-16T18:53:51;-2.80;99.90
18252;DHT22;26917;52.328;20.878;2022-12-16T19:00:21;-2.80;99.90
18252;DHT22;26917;52.328;20.878;2022-12-16T19:03:24;-2.80;99.90
18252;DHT22;26917;52.328;20.878;2022-12-16T19:06:19;-2.40;99.90
18252;DHT22;26917;52.328;20.878;2022-12-16T19:10:14;-2.80;99.90
18252;DHT22;26917;52.328;20.878;2022-12-16T19:13:03;-2.70;99.90
18252;DHT22;26917;52.328;20.878;2022-12-16T19:20:00;-2.80;99.90
18252;DHT22;26917;52.328;20.878;2022-12-16T19:22:53;-2.80;99.90
18252;DHT22;26917;52.328;20.878;2022-12-16T19:33:53;-2.70;99.90
18252;DHT22;26917;52.328;20.878;2022-12-16T19:36:59;-2.60;99.90
18252;DHT22;26917;52.328;20.878;2022-12-16T19:39:59;-2.70;99.90
18252;DHT22;26917;52.328;20.878;2022-12-16T19:42:45;-2.60;99.90
18252;DHT22;26917;52.328;20.878;2022-12-16T19:45:30;-2.30;99.90
18252;DHT22;26917;52.328;20.878;2022-12-16T19:48:23;-2.70;99.90
18252;DHT22;26917;52.328;20.878;2022-12-16T19:51:34;-2.80;99.90
18252;DHT22;26917;52.328;20.878;2022-12-16T19:54:42;-2.60;99.90
18252;DHT22;26917;52.328;20.878;2022-12-16T19:57:28;-2.80;99.90
18252;DHT22;26917;52.328;20.878;2022-12-16T20:00:28;-2.80;99.90
18252;DHT22;26917;52.328;20.878;2022-12-16T20:03:15;-2.80;99.90
18252;DHT22;26917;52.328;20.878;2022-12-16T20:06:04;-2.60;99.90
18252;DHT22;26917;52.328;20.878;2022-12-16T20:09:04;-2.80;99.90
18252;DHT22;26917;52.328;20.878;2022-12-16T20:11:51;-2.60;99.90
18252;DHT22;26917;52.328;20.878;2022-12-16T20:14:37;-2.80;99.90
18252;DHT22;26917;52.328;20.878;2022-12-16T20:17:30;-2.80;99.90
18252;DHT22;26917;52.328;20.878;2022-12-16T20:20:17;-2.60;99.90
18252;DHT22;26917;52.328;20.878;2022-12-16T20:23:17;-2.50;99.90
18252;DHT22;26917;52.328;20.878;2022-12-16T20:26:03;-2.70;99.90
18252;DHT22;26917;52.328;20.878;2022-12-16T20:32:45;-2.80;99.90
18252;DHT22;26917;52.328;20.878;2022-12-16T20:35:40;-2.80;99.90
18252;DHT22;26917;52.328;20.878;2022-12-16T20:38:26;-2.80;99.90
18252;DHT22;26917;52.328;20.878;2022-12-16T20:41:14;-2.40;99.90
18252;DHT22;26917;52.328;20.878;2022-12-16T20:43:59;-2.50;99.90
18252;DHT22;26917;52.328;20.878;2022-12-16T20:46:45;-2.20;99.90
18252;DHT22;26917;52.328;20.878;2022-12-16T20:49:32;-2.70;99.90
18252;DHT22;26917;52.328;20.878;2022-12-16T20:52:19;-2.80;99.90
18252;DHT22;26917;52.328;20.878;2022-12-16T20:55:19;-2.60;99.90
18252;DHT22;26917;52.328;20.878;2022-12-16T20:58:06;-2.70;99.90
18252;DHT22;26917;52.328;20.878;2022-12-16T21:00:52;-2.70;99.90
18252;DHT22;26917;52.328;20.878;2022-12-16T21:03:52;-2.60;99.90
18252;DHT22;26917;52.328;20.878;2022-12-16T21:06:54;-2.80;99.90
18252;DHT22;26917;52.328;20.878;2022-12-16T21:09:40;-2.40;99.90
18252;DHT22;26917;52.328;20.878;2022-12-16T21:12:39;-1.70;99.90
18252;DHT22;26917;52.328;20.878;2022-12-16T21:15:39;-2.10;99.90
18252;DHT22;26917;52.328;20.878;2022-12-16T21:18:26;-2.50;99.90
18252;DHT22;26917;52.328;20.878;2022-12-16T21:21:14;-3.60;99.90
18252;DHT22;26917;52.328;20.878;2022-12-16T21:24:15;-2.80;99.90
18252;DHT22;26917;52.328;20.878;2022-12-16T21:27:02;-2.60;99.90
18252;DHT22;26917;52.328;20.878;2022-12-16T21:29:48;-2.50;99.90
18252;DHT22;26917;52.328;20.878;2022-12-16T21:32:33;-2.60;99.90
18252;DHT22;26917;52.328;20.878;2022-12-16T21:35:22;-2.80;99.90
18252;DHT22;26917;52.328;20.878;2022-12-16T21:38:11;-2.80;99.90
18252;DHT22;26917;52.328;20.878;2022-12-16T21:41:13;-2.10;99.90
18252;DHT22;26917;52.328;20.878;2022-12-16T21:44:00;-2.20;99.90
18252;DHT22;26917;52.328;20.878;2022-12-16T21:47:00;-2.60;99.90
18252;DHT22;26917;52.328;20.878;2022-12-16T21:49:49;-2.80;99.90
18252;DHT22;26917;52.328;20.878;2022-12-16T21:52:52;-2.80;99.90
18252;DHT22;26917;52.328;20.878;2022-12-16T21:55:41;-2.80;99.90
18252;DHT22;26917;52.328;20.878;2022-12-16T21:58:43;-2.60;99.90
18252;DHT22;26917;52.328;20.878;2022-12-16T22:01:28;-2.80;99.90
18252;DHT22;26917;52.328;20.878;2022-12-16T22:04:28;-1.60;99.90
18252;DHT22;26917;52.328;20.878;2022-12-16T22:07:29;-2.80;99.90
18252;DHT22;26917;52.328;20.878;2022-12-16T22:10:17;-2.80;99.90
18252;DHT22;26917;52.328;20.878;2022-12-16T22:13:03;-2.70;99.90
18252;DHT22;26917;52.328;20.878;2022-12-16T22:16:05;-2.80;99.90
18252;DHT22;26917;52.328;20.878;2022-12-16T22:18:52;-2.30;99.90
18252;DHT22;26917;52.328;20.878;2022-12-16T22:21:53;-2.80;99.90
18252;DHT22;26917;52.328;20.878;2022-12-16T22:24:52;-2.80;99.90
18252;DHT22;26917;52.328;20.878;2022-12-16T22:27:59;-2.70;99.90
18252;DHT22;26917;52.328;20.878;2022-12-16T22:30:52;-2.80;99.90
18252;DHT22;26917;52.328;20.878;2022-12-16T22:33:52;-2.80;99.90
18252;DHT22;26917;52.328;20.878;2022-12-16T22:36:52;-2.60;99.90
18252;DHT22;26917;52.328;20.878;2022-12-16T22:39:55;-2.70;99.90
18252;DHT22;26917;52.328;20.878;2022-12-16T22:42:41;-2.80;99.90
18252;DHT22;26917;52.328;20.878;2022-12-16T22:45:27;-2.80;99.90
18252;DHT22;26917;52.328;20.878;2022-12-16T22:48:13;-2.10;99.90
18252;DHT22;26917;52.328;20.878;2022-12-16T22:51:00;-2.80;99.90
18252;DHT22;26917;52.328;20.878;2022-12-16T22:54:00;-2.70;99.90
18252;DHT22;26917;52.328;20.878;2022-12-16T22:56:46;-2.80;99.90
18252;DHT22;26917;52.328;20.878;2022-12-16T22:59:32;-2.20;99.90
18252;DHT22;26917;52.328;20.878;2022-12-16T23:02:32;-2.70;99.90
18252;DHT22;26917;52.328;20.878;2022-12-16T23:05:18;-2.10;99.90
18252;DHT22;26917;52.328;20.878;2022-12-16T23:08:19;-2.90;99.90
18252;DHT22;26917;52.328;20.878;2022-12-16T23:11:21;-3.40;99.90
18252;DHT22;26917;52.328;20.878;2022-12-16T23:14:07;-2.80;99.90
18252;DHT22;26917;52.328;20.878;2022-12-16T23:16:53;-2.80;99.90
18252;DHT22;26917;52.328;20.878;2022-12-16T23:19:55;-2.80;99.90
18252;DHT22;26917;52.328;20.878;2022-12-16T23:22:41;-2.40;99.90
18252;DHT22;26917;52.328;20.878;2022-12-16T23:25:41;-2.80;99.90
18252;DHT22;26917;52.328;20.878;2022-12-16T23:28:27;-2.70;99.90
18252;DHT22;26917;52.328;20.878;2022-12-16T23:31:13;-2.80;99.90
18252;DHT22;26917;52.328;20.878;2022-12-16T23:33:58;-2.90;99.90
18252;DHT22;26917;52.328;20.878;2022-12-16T23:36:44;-2.70;99.90
18252;DHT22;26917;52.328;20.878;2022-12-16T23:39:44;-2.20;99.90
18252;DHT22;26917;52.328;20.878;2022-12-16T23:43:00;-2.90;99.90
18252;DHT22;26917;52.328;20.878;2022-12-16T23:45:46;-2.80;99.90
18252;DHT22;26917;52.328;20.878;2022-12-16T23:49:00;-2.70;99.90
18252;DHT22;26917;52.328;20.878;2022-12-16T23:52:02;-2.80;99.90
18252;DHT22;26917;52.328;20.878;2022-12-16T23:54:51;-2.50;99.90
18252;DHT22;26917;52.328;20.878;2022-12-16T23:57:40;-2.50;99.90
